Time;durP1;ratioP1;P1;durP2;ratioP2;P2;SDS_P1;SDS_P2;PMS_P1;PMS_P2;Temp;Humidity;BMP_temperature;BMP_pressure;BME280_temperature;BME280_humidity;BME280_pressure;Samples;Min_cycle;Max_cycle;Signal;HPM_P1;HPM_P2
2022/07/01 00:00:14;;;;;;;5.95;5.35;;;;;;;27.70;55.93;101435.12;1701938;84;20994;-53
2022/07/01 00:02:41;;;;;;;5.47;4.90;;;;;;;27.72;56.00;101440.37;1701243;84;21022;-52
2022/07/01 00:05:08;;;;;;;5.65;4.97;;;;;;;27.70;56.25;101444.99;1700382;84;21463;-51
2022/07/01 00:07:48;;;;;;;6.22;5.17;;;;;;;27.68;56.52;101441.56;1700324;84;21046;-50
2022/07/01 00:10:15;;;;;;;5.55;5.05;;;;;;;27.69;56.67;101448.62;1698105;84;21018;-56
2022/07/01 00:12:44;;;;;;;6.40;4.80;;;;;;;27.68;56.72;101450.44;1698336;84;21011;-51
2022/07/01 00:15:10;;;;;;;5.08;4.20;;;;;;;27.67;56.91;101452.77;1697813;84;21089;-53
2022/07/01 00:17:38;;;;;;;5.75;5.25;;;;;;;27.67;56.93;101449.24;1698803;84;21558;-52
2022/07/01 00:20:07;;;;;;;4.95;4.55;;;;;;;27.67;56.98;101446.09;1698880;84;21002;-49
2022/07/01 00:22:34;;;;;;;5.12;4.55;;;;;;;27.67;57.05;101449.24;1700713;84;20974;-49
2022/07/01 00:25:02;;;;;;;5.30;4.85;;;;;;;27.67;57.05;101442.56;1704437;84;21108;-49
2022/07/01 00:27:29;;;;;;;7.12;5.17;;;;;;;27.66;57.23;101440.84;1698425;84;21077;-52
2022/07/01 00:29:56;;;;;;;4.85;4.45;;;;;;;27.63;57.37;101438.44;1699938;84;20995;-50
2022/07/01 00:32:23;;;;;;;5.72;4.72;;;;;;;27.63;57.44;101441.11;1740863;80;21085;-52
2022/07/01 00:34:49;;;;;;;4.70;4.28;;;;;;;27.62;57.57;101437.58;1714137;83;21041;-54
2022/07/01 00:37:16;;;;;;;5.05;4.60;;;;;;;27.62;57.62;101436.72;1717079;83;21073;-54
2022/07/01 00:39:43;;;;;;;6.47;4.62;;;;;;;27.60;57.76;101439.53;1712885;83;21009;-53
2022/07/01 00:42:09;;;;;;;4.75;4.35;;;;;;;27.61;57.79;101435.04;1709615;83;21025;-54
2022/07/01 00:44:36;;;;;;;4.85;4.35;;;;;;;27.61;57.83;101440.39;1715492;83;21037;-52
2022/07/01 00:47:06;;;;;;;6.05;4.55;;;;;;;27.60;57.92;101436.00;1713028;83;21554;-52
2022/07/01 00:49:32;;;;;;;4.42;4.12;;;;;;;27.61;57.93;101441.72;1711418;83;21029;-51
2022/07/01 00:51:59;;;;;;;5.12;4.62;;;;;;;27.59;57.92;101441.00;1711042;83;21014;-54
2022/07/01 00:54:26;;;;;;;6.20;4.40;;;;;;;27.59;57.79;101443.67;1710344;83;21498;-51
2022/07/01 00:56:54;;;;;;;4.33;3.90;;;;;;;27.58;57.89;101439.29;1711041;83;21526;-51
2022/07/01 00:59:20;;;;;;;4.33;4.03;;;;;;;27.58;57.83;101443.30;1711757;83;21057;-51
2022/07/01 01:01:47;;;;;;;4.85;4.45;;;;;;;27.56;57.87;101437.23;1708061;83;21006;-54
2022/07/01 01:04:14;;;;;;;4.55;4.15;;;;;;;27.55;57.88;101434.20;1713904;83;21053;-51
2022/07/01 01:06:42;;;;;;;5.20;4.70;;;;;;;27.55;57.85;101444.91;1712565;83;21515;-51
2022/07/01 01:09:09;;;;;;;4.60;4.30;;;;;;;27.54;57.89;101441.85;1711369;83;21522;-51
2022/07/01 01:11:36;;;;;;;4.83;3.95;;;;;;;27.51;57.93;101437.63;1701241;83;21048;-52
2022/07/01 01:14:02;;;;;;;4.17;3.87;;;;;;;27.51;57.95;101440.78;1713956;83;21025;-53
2022/07/01 01:16:30;;;;;;;4.92;4.45;;;;;;;27.50;58.01;101440.41;1713261;83;21045;-51
2022/07/01 01:18:57;;;;;;;5.12;4.65;;;;;;;27.49;58.07;101441.39;1710162;83;21041;-54
2022/07/01 01:21:24;;;;;;;5.10;4.62;;;;;;;27.47;58.06;101442.00;1705760;83;21056;-51
2022/07/01 01:23:50;;;;;;;5.00;4.50;;;;;;;27.46;58.10;101438.95;1679561;84;21045;-50
2022/07/01 01:26:21;;;;;;;7.05;4.83;;;;;;;27.45;58.13;101441.28;1714064;83;21506;-51
2022/07/01 01:28:48;;;;;;;4.62;4.12;;;;;;;27.44;58.16;101434.22;1657378;86;21095;-50
2022/07/01 01:31:15;;;;;;;4.40;4.00;;;;;;;27.44;58.21;101440.91;1656160;86;21580;-50
2022/07/01 01:33:42;;;;;;;4.85;4.45;;;;;;;27.43;58.15;101440.56;1631551;86;21142;-50
2022/07/01 01:36:09;;;;;;;6.22;4.42;;;;;;;27.42;58.15;101442.38;1665711;84;21069;-55
2022/07/01 01:38:37;;;;;;;4.85;4.45;;;;;;;27.40;58.25;101438.98;1665285;84;21085;-50
2022/07/01 01:41:04;;;;;;;5.92;4.20;;;;;;;27.42;58.30;101440.18;1662844;84;21101;-51
2022/07/01 01:43:35;;;;;;;4.80;4.40;;;;;;;27.37;58.49;101438.73;1666461;84;21057;-50
2022/07/01 01:46:02;;;;;;;6.22;4.53;;;;;;;27.32;58.69;101438.23;1664572;85;21069;-50
2022/07/01 01:48:31;;;;;;;4.17;3.87;;;;;;;27.30;58.70;101434.84;1668463;85;21052;-52
2022/07/01 01:50:58;;;;;;;4.45;4.12;;;;;;;27.31;58.68;101433.85;1668548;84;21065;-52
2022/07/01 01:53:24;;;;;;;4.30;3.90;;;;;;;27.32;58.63;101435.56;1657594;84;21490;-49
2022/07/01 01:55:51;;;;;;;4.50;4.12;;;;;;;27.32;58.58;101435.56;1667133;84;21069;-49
2022/07/01 01:58:18;;;;;;;4.83;4.10;;;;;;;27.32;58.61;101436.91;1668385;84;21081;-53
2022/07/01 02:00:45;;;;;;;4.50;4.08;;;;;;;27.32;58.67;101436.91;1668004;84;21048;-49
2022/07/01 02:03:12;;;;;;;4.40;4.00;;;;;;;27.32;58.65;101434.70;1671813;84;21038;-51
2022/07/01 02:05:39;;;;;;;4.40;4.00;;;;;;;27.31;58.52;101433.85;1667132;84;21135;-53
2022/07/01 02:08:06;;;;;;;4.20;3.80;;;;;;;27.32;58.45;101442.25;1667964;85;21037;-51
2022/07/01 02:10:33;;;;;;;4.58;4.08;;;;;;;27.31;58.43;101441.87;1668462;84;21073;-51
2022/07/01 02:13:00;;;;;;;4.30;4.00;;;;;;;27.30;58.46;101442.86;1667950;84;21554;-53
2022/07/01 02:15:27;;;;;;;4.37;3.98;;;;;;;27.28;58.56;101439.46;1665592;84;21005;-52
2022/07/01 02:17:56;;;;;;;6.03;4.45;;;;;;;27.27;58.66;101441.75;1665065;84;21054;-51
2022/07/01 02:20:24;;;;;;;4.60;4.20;;;;;;;27.25;58.66;101437.02;1665997;84;21065;-51
2022/07/01 02:22:51;;;;;;;5.00;4.60;;;;;;;27.24;58.74;101437.98;1665494;84;21050;-53
2022/07/01 02:25:19;;;;;;;5.20;4.67;;;;;;;27.22;58.77;101443.11;1665521;84;21037;-52
2022/07/01 02:27:46;;;;;;;5.15;4.70;;;;;;;27.21;58.78;101442.25;1674240;84;21038;-55
2022/07/01 02:30:13;;;;;;;6.42;4.90;;;;;;;27.20;58.82;101448.55;1668570;84;21521;-53
2022/07/01 02:32:40;;;;;;;5.50;5.00;;;;;;;27.21;58.90;101451.60;1714893;80;21035;-57
2022/07/01 02:35:08;;;;;;;8.03;5.42;;;;;;;27.21;58.95;101455.61;1747276;80;21082;-54
2022/07/01 02:37:34;;;;;;;5.80;5.20;;;;;;;27.21;58.95;101455.61;1748379;81;21127;-52
2022/07/01 02:40:02;;;;;;;5.95;5.42;;;;;;;27.23;59.04;101456.34;1744603;81;21069;-51
2022/07/01 02:42:34;;;;;;;6.55;5.53;;;;;;;27.25;59.10;101452.20;1752992;80;21022;-52
2022/07/01 02:44:58;;;;;;;5.70;5.25;;;;;;;27.23;59.15;101452.33;1744590;80;21077;-51
2022/07/01 02:47:25;;;;;;;6.15;5.60;;;;;;;27.24;59.18;101457.19;1746454;80;21040;-50
2022/07/01 02:49:55;;;;;;;6.22;5.70;;;;;;;27.23;59.24;101460.82;1740221;81;21030;-52
2022/07/01 02:52:22;;;;;;;6.00;5.40;;;;;;;27.22;59.25;101463.97;1744933;80;21022;-50
2022/07/01 02:54:49;;;;;;;5.80;5.33;;;;;;;27.21;59.21;101463.63;1746771;80;21018;-52
2022/07/01 02:57:16;;;;;;;6.03;5.53;;;;;;;27.18;59.25;101469.20;1746285;80;21328;-50
2022/07/01 02:59:42;;;;;;;7.62;5.92;;;;;;;27.15;59.21;101465.45;1746490;80;21053;-53
2022/07/01 03:02:09;;;;;;;5.87;5.37;;;;;;;27.13;59.29;101470.55;1749033;80;21077;-52
2022/07/01 03:04:36;;;;;;;8.90;6.17;;;;;;;27.10;59.35;101475.64;1749614;80;21005;-51
2022/07/01 03:07:03;;;;;;;6.55;6.03;;;;;;;27.08;59.33;101476.25;1712783;83;21541;-52
2022/07/01 03:09:31;;;;;;;6.10;5.65;;;;;;;27.06;59.30;101475.52;1710119;83;21025;-50
2022/07/01 03:11:57;;;;;;;6.20;5.60;;;;;;;27.05;59.30;101472.98;1701184;83;21057;-54
2022/07/01 03:14:24;;;;;;;7.58;6.87;;;;;;;27.04;59.29;101475.27;1713951;83;21014;-50
2022/07/01 03:16:51;;;;;;;6.10;5.60;;;;;;;27.03;59.31;101481.13;1713950;83;21053;-54
2022/07/01 03:19:18;;;;;;;5.97;5.47;;;;;;;27.04;59.23;101481.95;1710054;83;21045;-53
2022/07/01 03:21:45;;;;;;;6.03;5.28;;;;;;;27.04;59.16;101484.14;1711924;83;21018;-55
2022/07/01 03:24:11;;;;;;;5.42;5.03;;;;;;;27.04;59.08;101485.48;1698837;83;21567;-50
2022/07/01 03:26:40;;;;;;;5.60;5.10;;;;;;;27.05;58.96;101487.67;1713907;83;21026;-50
2022/07/01 03:29:07;;;;;;;5.70;5.30;;;;;;;27.05;58.75;101491.20;1713917;83;21065;-52
2022/07/01 03:31:33;;;;;;;5.70;5.20;;;;;;;27.03;58.61;101490.47;1712258;83;21010;-52
2022/07/01 03:34:01;;;;;;;5.85;5.35;;;;;;;27.03;58.48;101498.48;1702385;83;21026;-50
2022/07/01 03:36:27;;;;;;;5.67;5.25;;;;;;;27.03;58.33;101501.16;1698151;84;21049;-53
2022/07/01 03:38:54;;;;;;;5.53;5.05;;;;;;;27.04;58.32;101504.17;1698310;84;21041;-52
2022/07/01 03:41:21;;;;;;;5.83;5.33;;;;;;;27.04;58.30;101502.84;1698084;84;21471;-51
2022/07/01 03:43:48;;;;;;;5.92;5.42;;;;;;;27.07;58.42;101499.94;1735575;81;21070;-53
2022/07/01 03:46:15;;;;;;;5.30;4.90;;;;;;;27.21;58.29;101502.37;1734339;81;21042;-50
2022/07/01 03:48:41;;;;;;;5.10;4.70;;;;;;;27.46;57.97;101508.45;1739181;81;21041;-53
2022/07/01 03:51:08;;;;;;;5.50;4.87;;;;;;;27.84;57.08;101508.89;1732073;82;21027;-53
2022/07/01 03:56:20;;;;;;;5.12;4.62;;;;;;;28.84;54.11;101504.81;1736653;81;21030;-50
2022/07/01 03:58:47;;;;;;;5.40;5.00;;;;;;;29.48;52.48;101500.05;1700977;84;21038;-50
2022/07/01 04:01:13;;;;;;;5.42;4.92;;;;;;;29.99;50.87;101505.25;1698548;84;21054;-52
2022/07/01 04:03:40;;;;;;;5.47;5.08;;;;;;;30.44;49.51;101498.36;1698244;84;21015;-57
2022/07/01 04:06:09;;;;;;;6.65;5.53;;;;;;;30.74;48.35;101505.39;1697635;84;21050;-51
2022/07/01 04:08:35;;;;;;;5.60;5.20;;;;;;;30.86;47.69;101505.60;1698917;84;21082;-49
2022/07/01 04:11:02;;;;;;;5.80;5.33;;;;;;;30.82;47.56;101510.03;1697017;84;21038;-51
2022/07/01 04:13:31;;;;;;;6.20;5.67;;;;;;;30.67;47.44;101502.92;1699416;84;21054;-50
2022/07/01 04:15:59;;;;;;;5.67;5.28;;;;;;;30.48;47.80;101506.48;1735741;82;21019;-53
2022/07/01 04:18:27;;;;;;;5.70;5.28;;;;;;;30.29;48.20;101506.97;1701338;83;21030;-55
2022/07/01 04:23:40;;;;;;;6.87;6.33;;;;;;;29.90;48.85;101511.48;1701244;84;21526;-49
2022/07/01 04:26:06;;;;;;;6.83;6.03;;;;;;;29.66;49.29;101519.00;1733489;81;21022;-50
2022/07/01 04:28:33;;;;;;;6.22;5.70;;;;;;;29.47;49.83;101522.98;1722166;81;20995;-53
2022/07/01 04:31:01;;;;;;;6.75;6.17;;;;;;;29.29;50.22;101527.27;1701344;84;21498;-50
2022/07/01 04:33:27;;;;;;;7.00;6.40;;;;;;;29.10;50.53;101517.27;1736695;81;21484;-53
2022/07/01 04:35:54;;;;;;;7.45;6.65;;;;;;;28.94;50.96;101523.12;1699386;84;21011;-50
2022/07/01 04:38:21;;;;;;;7.55;6.87;;;;;;;28.83;51.29;101523.20;1698351;84;21039;-50
2022/07/01 04:43:33;;;;;;;7.50;6.90;;;;;;;28.61;51.87;101531.86;1696033;84;21539;-52
2022/07/01 04:45:59;;;;;;;8.33;7.03;;;;;;;28.51;52.31;101535.78;1702848;84;21018;-52
2022/07/01 04:48:26;;;;;;;8.15;7.35;;;;;;;28.46;52.69;101537.98;1736618;81;20999;-55
2022/07/01 04:50:53;;;;;;;7.78;6.97;;;;;;;28.41;52.66;101533.52;1733684;81;21536;-55
2022/07/01 04:53:19;;;;;;;8.30;7.50;;;;;;;28.36;52.82;101534.38;1733657;81;20980;-53
2022/07/01 04:55:47;;;;;;;8.15;7.42;;;;;;;28.33;52.94;101542.69;1733341;81;21026;-50
2022/07/01 04:58:14;;;;;;;8.00;7.40;;;;;;;28.31;53.08;101533.08;1733787;81;21035;-52
2022/07/01 05:00:40;;;;;;;7.55;6.95;;;;;;;28.30;53.09;101536.23;1734035;81;21007;-52
2022/07/01 05:03:07;;;;;;;9.80;7.75;;;;;;;28.31;53.24;101539.28;1730353;81;21499;-52
2022/07/01 05:05:34;;;;;;;8.35;7.55;;;;;;;28.34;53.12;101536.34;1701096;84;21034;-53
2022/07/01 05:08:02;;;;;;;9.53;8.28;;;;;;;28.38;53.12;101537.78;1699364;84;21073;-55
2022/07/01 05:10:29;;;;;;;9.18;7.90;;;;;;;28.48;53.26;101534.69;1698597;84;21031;-49
2022/07/01 05:12:56;;;;;;;8.53;7.67;;;;;;;28.62;52.93;101533.57;1734244;81;20999;-49
2022/07/01 05:15:22;;;;;;;8.13;7.33;;;;;;;28.76;52.49;101534.09;1733406;81;21023;-51
2022/07/01 05:23:19;;;;;;;9.43;8.53;;;;;;;29.38;51.24;101533.17;1733704;81;21480;-53
2022/07/01 05:25:47;;;;;;;8.95;8.05;;;;;;;29.64;50.67;101536.58;1733406;81;21093;-57
2022/07/01 05:28:14;;;;;;;8.98;7.85;;;;;;;29.90;50.16;101541.00;1733752;81;21011;-51
2022/07/01 05:30:40;;;;;;;8.18;7.47;;;;;;;30.14;49.59;101540.59;1733981;81;21034;-54
2022/07/01 05:33:08;;;;;;;8.85;7.95;;;;;;;30.33;49.18;101540.16;1731121;81;21520;-53
2022/07/01 05:35:35;;;;;;;8.15;7.45;;;;;;;30.48;48.90;101538.71;1749671;80;21081;-50
2022/07/01 05:38:02;;;;;;;8.75;7.62;;;;;;;30.60;48.90;101542.60;1712121;83;21128;-50
2022/07/01 05:40:29;;;;;;;9.30;8.00;;;;;;;30.69;48.78;101547.09;1711350;83;21037;-50
2022/07/01 05:42:56;;;;;;;8.93;8.13;;;;;;;30.74;48.35;101538.98;1713877;83;21018;-57
2022/07/01 05:45:23;;;;;;;9.78;7.78;;;;;;;30.76;48.23;101538.83;1713086;83;21057;-52
2022/07/01 05:47:49;;;;;;;10.50;7.92;;;;;;;30.78;48.17;101547.10;1710823;83;21018;-50
2022/07/01 05:50:16;;;;;;;8.40;7.67;;;;;;;30.83;48.12;101549.36;1710814;83;20986;-51
2022/07/01 05:52:44;;;;;;;9.78;8.85;;;;;;;30.87;47.95;101545.42;1703405;83;21517;-57
2022/07/01 05:55:10;;;;;;;8.80;7.78;;;;;;;30.91;47.62;101546.83;1713634;83;20994;-52
2022/07/01 05:57:37;;;;;;;8.80;7.90;;;;;;;30.94;47.95;101542.00;1711244;83;21030;-49
2022/07/01 06:00:06;;;;;;;9.45;8.25;;;;;;;31.00;48.07;101538.73;1710596;83;20986;-56
2022/07/01 06:02:35;;;;;;;8.98;8.05;;;;;;;31.10;47.76;101542.72;1707216;83;21030;-50
2022/07/01 06:05:04;;;;;;;8.75;7.83;;;;;;;31.22;48.06;101543.74;1711038;83;21075;-52
2022/07/01 06:07:31;;;;;;;9.80;8.55;;;;;;;31.39;47.70;101547.53;1711067;83;21065;-50
2022/07/01 06:09:57;;;;;;;9.45;8.48;;;;;;;31.58;47.22;101553.33;1709197;83;20990;-55
2022/07/01 06:12:24;;;;;;;9.18;8.18;;;;;;;31.75;46.86;101553.88;1708976;83;21490;-53
2022/07/01 06:14:50;;;;;;;8.85;7.33;;;;;;;31.86;46.38;101554.50;1711165;83;21032;-54
2022/07/01 06:17:18;;;;;;;9.08;8.13;;;;;;;31.92;46.06;101553.89;1710740;83;21017;-55
2022/07/01 06:19:45;;;;;;;8.95;7.97;;;;;;;31.94;46.04;101547.89;1711295;83;21064;-52
2022/07/01 06:22:16;;;;;;;9.18;8.08;;;;;;;32.00;45.74;101558.08;1713530;83;21025;-50
2022/07/01 06:24:41;;;;;;;8.80;7.47;;;;;;;32.08;45.69;101554.12;1707867;83;21494;-53
2022/07/01 06:27:08;;;;;;;13.88;7.97;;;;;;;32.27;45.25;101565.75;1715924;83;21018;-53
2022/07/01 06:29:35;;;;;;;9.00;7.50;;;;;;;32.51;44.69;101563.30;1712119;83;21051;-50
2022/07/01 06:32:04;;;;;;;7.67;6.87;;;;;;;32.72;43.89;101566.52;1711245;83;21021;-50
2022/07/01 06:34:31;;;;;;;7.92;7.12;;;;;;;32.86;43.21;101564.59;1708147;83;21526;-53
2022/07/01 06:37:00;;;;;;;8.78;7.50;;;;;;;32.96;43.32;101562.64;1705763;83;21034;-53
2022/07/01 06:39:27;;;;;;;10.53;7.10;;;;;;;32.98;43.25;101555.27;1705375;83;21132;-53
2022/07/01 06:41:54;;;;;;;7.92;7.22;;;;;;;32.96;43.06;101558.59;1706747;83;21542;-54
2022/07/01 06:44:21;;;;;;;8.85;8.03;;;;;;;32.89;43.08;101558.91;1708846;83;21013;-51
2022/07/01 06:46:48;;;;;;;8.80;7.55;;;;;;;32.80;43.38;101567.43;1744743;81;21447;-50
2022/07/01 06:49:14;;;;;;;7.95;7.25;;;;;;;32.70;43.14;101561.78;1740038;82;21563;-56
2022/07/01 06:51:41;;;;;;;7.28;6.53;;;;;;;32.60;43.63;101568.59;1740005;81;21007;-50
2022/07/01 06:54:08;;;;;;;11.20;7.67;;;;;;;32.50;43.73;101561.63;1741197;81;20967;-52
2022/07/01 06:56:35;;;;;;;10.18;7.03;;;;;;;32.42;43.64;101566.91;1741064;81;21034;-53
2022/07/01 06:59:02;;;;;;;7.60;6.90;;;;;;;32.32;43.98;101571.50;1740895;81;21542;-54
2022/07/01 07:01:29;;;;;;;7.83;7.03;;;;;;;32.23;43.67;101571.09;1743792;81;21018;-53
2022/07/01 07:03:56;;;;;;;8.25;7.17;;;;;;;32.14;43.79;101568.81;1744244;81;21007;-51
2022/07/01 07:06:23;;;;;;;9.58;7.17;;;;;;;32.07;44.23;101569.92;1743573;81;21093;-52
2022/07/01 07:08:50;;;;;;;11.15;7.42;;;;;;;32.00;44.38;101570.20;1741648;81;21542;-50
2022/07/01 07:11:19;;;;;;;10.25;7.55;;;;;;;31.95;44.08;101567.09;1746782;81;21053;-53
2022/07/01 07:13:46;;;;;;;7.00;6.40;;;;;;;31.90;44.08;101569.35;1745022;82;21046;-54
2022/07/01 07:16:12;;;;;;;7.45;6.75;;;;;;;31.85;43.94;101566.28;1744287;81;21019;-52
2022/07/01 07:18:39;;;;;;;7.35;6.65;;;;;;;31.77;44.04;101568.03;1707220;83;21041;-53
2022/07/01 07:21:06;;;;;;;6.83;6.22;;;;;;;31.67;44.32;101564.05;1705950;83;21105;-49
2022/07/01 07:23:33;;;;;;;9.30;6.37;;;;;;;31.61;44.41;101572.73;1705730;83;21034;-53
2022/07/01 07:25:59;;;;;;;8.50;6.30;;;;;;;31.57;44.00;101575.37;1702080;83;21465;-52
2022/07/01 07:28:26;;;;;;;12.47;6.47;;;;;;;31.55;44.18;101573.81;1708124;83;20994;-50
2022/07/01 07:30:53;;;;;;;7.03;6.33;;;;;;;31.56;44.29;101576.34;1744501;81;21070;-54
2022/07/01 07:33:19;;;;;;;8.65;6.65;;;;;;;31.67;44.10;101572.13;1743032;81;21057;-50
2022/07/01 07:35:46;;;;;;;8.88;6.42;;;;;;;31.83;43.76;101569.63;1734689;81;21074;-49
2022/07/01 07:38:12;;;;;;;7.80;6.75;;;;;;;31.93;43.44;101573.63;1735197;82;21042;-50
2022/07/01 07:40:41;;;;;;;8.88;6.08;;;;;;;31.98;43.11;101574.86;1701246;84;21510;-53
2022/07/01 07:43:08;;;;;;;9.35;6.75;;;;;;;31.99;43.01;101576.56;1700919;84;21030;-52
2022/07/01 07:45:35;;;;;;;7.20;6.50;;;;;;;31.95;43.16;101571.14;1734921;81;21012;-52
2022/07/01 07:48:03;;;;;;;9.88;6.67;;;;;;;31.88;43.33;101574.03;1733656;81;21058;-54
2022/07/01 07:50:31;;;;;;;8.15;5.92;;;;;;;31.82;43.53;101573.82;1733587;81;21055;-52
2022/07/01 07:52:58;;;;;;;8.63;6.67;;;;;;;31.75;43.59;101570.88;1732781;81;21101;-50
2022/07/01 07:55:25;;;;;;;9.60;6.60;;;;;;;31.66;43.89;101577.63;1733973;81;21055;-53
2022/07/01 07:57:52;;;;;;;7.62;5.83;;;;;;;31.59;44.29;101581.45;1734730;81;21043;-56
2022/07/01 08:00:19;;;;;;;9.13;6.72;;;;;;;31.55;44.46;101582.70;1736634;81;21515;-57
2022/07/01 08:02:46;;;;;;;7.15;6.45;;;;;;;31.51;44.35;101582.66;1700976;84;21042;-51
2022/07/01 08:05:22;;;;;;;7.37;6.67;;;;;;;31.40;44.05;101581.52;1696366;84;21062;-53
2022/07/01 08:07:48;;;;;;;7.95;7.25;;;;;;;31.27;44.58;101576.43;1736145;82;21014;-50
2022/07/01 08:10:15;;;;;;;7.80;6.12;;;;;;;31.16;44.51;101581.16;1695599;84;21018;-51
2022/07/01 08:12:42;;;;;;;7.95;7.22;;;;;;;31.05;44.96;101579.48;1698252;84;21518;-50
2022/07/01 08:15:10;;;;;;;7.92;7.12;;;;;;;30.99;45.78;101577.38;1698324;84;21041;-49
2022/07/01 08:17:36;;;;;;;10.08;7.42;;;;;;;30.99;45.85;101580.06;1698221;84;21030;-51
2022/07/01 08:20:05;;;;;;;7.58;6.85;;;;;;;30.98;45.99;101575.66;1735406;81;21027;-50
2022/07/01 08:22:33;;;;;;;8.28;7.42;;;;;;;30.98;45.62;101579.69;1732657;82;21478;-49
2022/07/01 08:25:00;;;;;;;8.38;7.22;;;;;;;30.98;45.64;101580.18;1736639;81;21035;-49
2022/07/01 08:27:27;;;;;;;8.55;7.42;;;;;;;30.96;45.93;101583.02;1698447;84;21566;-51
2022/07/01 08:29:54;;;;;;;11.90;8.08;;;;;;;30.94;45.87;101586.84;1690827;84;21103;-51
2022/07/01 08:32:22;;;;;;;7.78;7.17;;;;;;;30.89;45.96;101579.20;1731929;82;21086;-50
2022/07/01 08:34:49;;;;;;;8.65;7.78;;;;;;;30.89;45.71;101589.13;1699012;83;21071;-51
2022/07/01 08:37:16;;;;;;;8.30;7.53;;;;;;;30.87;45.55;101578.50;1705743;83;21089;-50
2022/07/01 08:39:43;;;;;;;10.30;7.70;;;;;;;30.86;45.47;101589.41;1705357;83;21097;-51
2022/07/01 08:42:10;;;;;;;10.15;7.55;;;;;;;30.84;45.98;101582.80;1701437;83;21066;-50
2022/07/01 08:44:37;;;;;;;7.95;7.22;;;;;;;30.86;45.86;101581.34;1708711;83;20983;-51
2022/07/01 08:47:04;;;;;;;8.10;7.30;;;;;;;30.89;45.77;101583.75;1730047;81;21056;-51
2022/07/01 08:49:31;;;;;;;9.18;7.45;;;;;;;30.90;45.78;101577.38;1741746;81;21526;-49
2022/07/01 08:51:58;;;;;;;12.10;7.60;;;;;;;30.95;45.83;101581.83;1746955;81;21495;-53
2022/07/01 08:54:27;;;;;;;10.03;6.70;;;;;;;30.97;45.39;101586.08;1745036;82;21045;-50
2022/07/01 08:56:53;;;;;;;10.28;6.78;;;;;;;30.98;44.98;101589.59;1704408;83;21038;-51
2022/07/01 08:59:25;;;;;;;7.28;6.60;;;;;;;30.96;45.09;101592.92;1699759;83;21120;-51
2022/07/01 09:02:00;;;;;;;7.42;6.47;;;;;;;31.01;45.22;101590.66;1737622;81;21010;-51
2022/07/01 09:04:27;;;;;;;9.75;6.72;;;;;;;31.05;44.91;101589.37;1744614;81;21495;-52
2022/07/01 09:07:02;;;;;;;8.53;6.45;;;;;;;31.09;44.31;101590.78;1740087;82;21097;-54
2022/07/01 09:09:29;;;;;;;6.97;6.25;;;;;;;31.11;43.58;101588.80;1685584;84;21051;-50
2022/07/01 09:11:57;;;;;;;7.30;6.62;;;;;;;31.15;43.49;101588.36;1685457;84;21027;-51
2022/07/01 09:14:26;;;;;;;8.23;6.22;;;;;;;31.22;43.29;101588.11;1691775;84;21163;-55
2022/07/01 09:17:00;;;;;;;6.58;5.92;;;;;;;31.26;43.04;101585.48;1654786;86;21533;-53
2022/07/01 09:19:29;;;;;;;7.90;6.10;;;;;;;31.31;42.49;101587.73;1608490;88;21088;-54
2022/07/01 09:22:01;;;;;;;8.28;5.97;;;;;;;31.36;42.09;101585.47;1605671;88;21603;-51
2022/07/01 09:24:41;;;;;;;7.00;6.08;;;;;;;31.41;41.06;101585.06;1612341;88;21037;-50
2022/07/01 09:27:17;;;;;;;8.15;6.55;;;;;;;31.45;41.08;101576.52;1606603;88;21053;-50
2022/07/01 09:29:51;;;;;;;6.78;6.17;;;;;;;31.48;40.91;101581.63;1602435;88;21509;-49
2022/07/01 09:32:20;;;;;;;11.95;6.90;;;;;;;31.54;40.76;101578.34;1607398;88;21537;-50
2022/07/01 09:34:52;;;;;;;9.65;6.55;;;;;;;31.58;40.65;101582.42;1607252;88;21602;-50
2022/07/01 09:37:24;;;;;;;8.60;6.15;;;;;;;31.61;40.49;101579.45;1555769;92;21615;-50
2022/07/01 09:39:53;;;;;;;7.67;6.25;;;;;;;31.68;39.91;101577.84;1545464;91;21086;-56
2022/07/01 09:42:22;;;;;;;7.80;6.87;;;;;;;31.73;39.93;101583.64;1551734;91;21097;-48
2022/07/01 09:44:59;;;;;;;7.08;6.28;;;;;;;31.76;39.75;101580.62;1565638;90;21505;-51
2022/07/01 09:47:26;;;;;;;6.30;5.70;;;;;;;31.77;39.79;101576.10;1497234;93;21131;-50
2022/07/01 09:49:54;;;;;;;9.35;6.85;;;;;;;31.78;38.71;101581.33;1530180;92;21139;-52
2022/07/01 09:52:22;;;;;;;10.15;6.45;;;;;;;31.76;38.73;101576.59;1531919;93;21102;-51
2022/07/01 09:54:50;;;;;;;9.88;6.03;;;;;;;31.77;39.37;101574.27;1527122;93;21058;-54
2022/07/01 09:57:17;;;;;;;9.28;6.55;;;;;;;31.76;39.29;101581.98;1513402;93;21078;-56
2022/07/01 09:59:44;;;;;;;8.60;6.30;;;;;;;31.77;39.08;101577.45;1516204;93;21163;-52
2022/07/01 10:02:11;;;;;;;12.70;6.65;;;;;;;31.78;39.85;101578.63;1512014;93;21150;-57
2022/07/01 10:04:42;;;;;;;11.65;6.83;;;;;;;31.80;39.99;101577.98;1510120;93;21145;-52
2022/07/01 10:07:32;;;;;;;7.00;5.90;;;;;;;31.83;39.72;101579.05;1522724;93;21092;-53
2022/07/01 10:10:19;;;;;;;12.50;8.15;;;;;;;31.86;39.22;101582.77;1514928;94;21116;-52
2022/07/01 10:12:53;;;;;;;11.57;6.83;;;;;;;31.88;39.51;101582.11;1513583;93;21114;-51
2022/07/01 10:15:20;;;;;;;24.05;6.75;;;;;;;31.91;39.30;101591.25;1523178;89;21064;-52
2022/07/01 10:17:50;;;;;;;10.55;6.60;;;;;;;31.92;38.94;101585.38;1589352;88;21060;-53
2022/07/01 10:20:19;;;;;;;7.10;5.25;;;;;;;31.93;39.24;101585.25;1580204;89;21008;-53
2022/07/01 10:22:47;;;;;;;6.25;5.62;;;;;;;31.93;39.16;101582.55;1584357;89;21547;-51
2022/07/01 10:25:47;;;;;;;6.72;5.92;;;;;;;31.94;38.76;101581.54;1595180;88;21057;-50
2022/07/01 10:28:31;;;;;;;6.42;5.85;;;;;;;31.95;39.54;101584.59;1591381;89;21076;-56
2022/07/01 10:31:05;;;;;;;6.72;6.03;;;;;;;31.97;39.31;101581.25;1583870;89;21103;-51
2022/07/01 10:33:55;;;;;;;7.97;5.72;;;;;;;31.92;39.30;101575.95;1571956;88;21130;-49
2022/07/01 10:36:33;;;;;;;8.35;5.95;;;;;;;31.90;39.94;101574.73;1598283;88;21094;-56
2022/07/01 10:41:59;;;;;;;6.72;5.87;;;;;;;31.98;40.57;101563.27;1619497;88;21521;-51
2022/07/01 10:44:27;;;;;;;8.60;5.65;;;;;;;32.02;40.15;101565.51;1635909;86;21072;-47
2022/07/01 10:47:07;;;;;;;9.58;6.15;;;;;;;32.04;39.49;101565.34;1606470;88;21037;-49
2022/07/01 10:49:42;;;;;;;11.03;5.80;;;;;;;32.03;39.61;101567.67;1613444;88;21080;-51
2022/07/01 10:52:18;;;;;;;8.93;5.92;;;;;;;32.01;39.33;101562.45;1649386;86;21482;-51
2022/07/01 10:54:48;;;;;;;8.45;5.53;;;;;;;32.00;38.74;101564.81;1611507;88;21138;-50
2022/07/01 10:57:32;;;;;;;6.65;5.80;;;;;;;31.99;38.71;101565.80;1611446;88;21092;-49
2022/07/01 11:00:04;;;;;;;9.58;5.50;;;;;;;31.98;39.08;101561.92;1611151;88;21123;-53
2022/07/01 11:02:34;;;;;;;6.80;5.40;;;;;;;31.96;39.12;101553.97;1608078;88;21601;-52
2022/07/01 11:05:14;;;;;;;7.90;5.33;;;;;;;31.99;39.45;101559.55;1609154;88;21041;-50
2022/07/01 11:07:45;;;;;;;8.45;5.92;;;;;;;32.02;39.06;101557.43;1608989;88;21568;-54
2022/07/01 11:10:15;;;;;;;5.87;5.03;;;;;;;32.07;38.60;101555.11;1530628;93;21066;-51
2022/07/01 11:12:44;;;;;;;5.37;4.87;;;;;;;32.10;39.29;101556.66;1527935;93;21122;-54
2022/07/01 11:15:12;;;;;;;8.78;5.60;;;;;;;32.15;38.93;101554.34;1531323;93;21113;-49
2022/07/01 11:17:49;;;;;;;7.12;5.42;;;;;;;32.20;38.54;101556.58;1521968;93;21082;-52
2022/07/01 11:20:16;;;;;;;6.80;5.28;;;;;;;32.25;38.30;101556.98;1524151;93;21062;-52
2022/07/01 11:22:43;;;;;;;7.20;5.35;;;;;;;32.28;37.94;101559.34;1531923;93;21538;-54
2022/07/01 11:25:11;;;;;;;6.12;5.42;;;;;;;32.32;38.03;101547.26;1529380;93;21101;-53
2022/07/01 11:27:38;;;;;;;8.30;5.70;;;;;;;32.34;38.10;101551.99;1532377;92;21534;-56
2022/07/01 11:30:11;;;;;;;6.42;4.80;;;;;;;32.35;38.40;101552.35;1533121;91;21625;-54
2022/07/01 11:32:41;;;;;;;6.95;5.30;;;;;;;32.34;38.11;101546.11;1508929;95;21133;-52
2022/07/01 11:41:09;;;;;;;9.90;5.55;;;;;;;32.28;39.18;101544.04;1558975;90;21087;-50
2022/07/01 11:43:39;;;;;;;9.43;5.00;;;;;;;32.29;39.31;101536.31;1512676;94;21019;-50
2022/07/01 11:46:07;;;;;;;6.60;4.65;;;;;;;32.33;38.77;101532.80;1510240;94;21032;-50
2022/07/01 11:48:41;;;;;;;6.92;4.87;;;;;;;32.35;38.32;101534.84;1508424;94;21550;-50
2022/07/01 11:51:19;;;;;;;5.53;4.40;;;;;;;32.40;38.61;101533.86;1514775;92;21096;-53